Randolph, Vermont
Current Conditions -  °F | °C
As of 12:51 AM on Tuesday 21 Oct 2014 (Local Time) from KMPV Reporting Station
Overcast Overcast  
Wind Chill: 41°   Ceiling: 6000
Heat Index: 41°   Visibility: 10mi
Dew Point: 38°   Wind: 0mph
Humidity: 89%   Direction: NA
Pressure: 29.97"   Gusts: NA
Location:  43.92°N, 72.66°W
Report Text: KMPV 210451Z AUTO 00000KT 10SM OVC060 05/03 A2997 RMK AO2 SLP157 T00500033 400941011 $
Loading
Personal Weather Stations






























Interactive Weather Map
Tropical Storm Tracking
New forecast layout! Learn more

10-Day Weather Forecast

Advertisements
Track Severe Weather on mobile